Time;durP1;ratioP1;P1;durP2;ratioP2;P2;SDS_P1;SDS_P2;PMS_P1;PMS_P2;Temp;Humidity;BMP_temperature;BMP_pressure;BME280_temperature;BME280_humidity;BME280_pressure;Samples;Min_cycle;Max_cycle;Signal;HPM_P1;HPM_P2
2024/02/08 00:02:08;;;;;;;0.30;0.20;;;;;;;6.54;100.00;98908.00;5029846;28;20480;-50
2024/02/08 00:04:37;;;;;;;0.30;0.20;;;;;;;6.56;100.00;98910.59;5034433;28;20479;-51
2024/02/08 00:10:33;;;;;;;0.30;0.20;;;;;;;6.55;100.00;98909.72;5039425;28;20434;-51
2024/02/08 00:12:59;;;;;;;0.30;0.20;;;;;;;6.66;100.00;98910.22;5035866;28;20495;-50
2024/02/08 00:15:29;;;;;;;0.30;0.20;;;;;;;6.49;100.00;98915.22;5019797;28;20442;-50
2024/02/08 00:17:56;;;;;;;0.30;0.20;;;;;;;6.45;100.00;98918.91;5029450;28;20483;-51
2024/02/08 00:20:23;;;;;;;0.30;0.20;;;;;;;6.46;100.00;98916.22;5038756;28;20433;-51
2024/02/08 00:22:53;;;;;;;0.30;0.20;;;;;;;6.62;100.00;98915.69;5036882;28;20568;-50
2024/02/08 00:25:23;;;;;;;0.30;0.20;;;;;;;6.66;100.00;98910.22;5035012;28;20476;-50
2024/02/08 00:27:52;;;;;;;0.30;0.20;;;;;;;6.73;100.00;98900.31;5032982;28;20475;-50
2024/02/08 00:30:19;;;;;;;0.30;0.20;;;;;;;6.78;100.00;98896.59;5030155;28;20451;-49
2024/02/08 00:32:46;;;;;;;0.30;0.20;;;;;;;6.74;100.00;98897.63;5016108;28;20453;-50
2024/02/08 00:35:19;;;;;;;0.30;0.20;;;;;;;6.71;100.00;98897.72;5015163;28;21017;-50
2024/02/08 00:37:47;;;;;;;0.30;0.20;;;;;;;6.68;100.00;98896.97;5009925;28;20919;-50
2024/02/08 00:40:17;;;;;;;0.30;0.20;;;;;;;6.69;100.00;98890.75;4997686;28;20503;-50
2024/02/08 00:42:47;;;;;;;0.30;0.17;;;;;;;6.62;100.00;98897.19;5008705;28;20449;-50
2024/02/08 00:45:15;;;;;;;0.30;0.20;;;;;;;6.67;100.00;98889.97;5008431;28;20448;-50
2024/02/08 00:47:42;;;;;;;0.30;0.20;;;;;;;6.73;100.00;98892.41;5003024;28;20452;-50
2024/02/08 00:50:08;;;;;;;0.30;0.10;;;;;;;6.63;100.00;98891.84;5009470;28;20437;-51
2024/02/08 00:52:36;;;;;;;0.30;0.20;;;;;;;6.72;100.00;98888.91;5036449;28;20443;-51
2024/02/08 00:55:03;;;;;;;0.30;0.20;;;;;;;6.79;100.00;98894.81;5026536;28;20499;-50
2024/02/08 00:57:32;;;;;;;0.30;0.20;;;;;;;6.63;100.00;98889.22;5035359;28;20441;-50
2024/02/08 00:59:59;;;;;;;0.30;0.20;;;;;;;6.58;100.00;98885.88;5035998;28;20436;-51
2024/02/08 01:02:29;;;;;;;0.30;0.20;;;;;;;6.54;100.00;98885.09;5037073;28;20436;-50
2024/02/08 01:04:56;;;;;;;0.30;0.20;;;;;;;6.39;100.00;98885.66;5039165;28;20471;-50
2024/02/08 01:07:22;;;;;;;0.30;0.20;;;;;;;6.27;100.00;98885.19;5037712;28;20476;-51
2024/02/08 01:09:49;;;;;;;0.30;0.20;;;;;;;6.33;100.00;98887.66;5037166;28;20441;-57
2024/02/08 01:12:18;;;;;;;0.30;0.20;;;;;;;6.50;100.00;98886.13;5038964;28;20452;-50
2024/02/08 01:14:48;;;;;;;0.30;0.20;;;;;;;6.50;100.00;98882.63;5037565;28;20515;-50
2024/02/08 01:17:14;;;;;;;0.30;0.20;;;;;;;6.67;100.00;98880.25;5023865;28;20452;-50
2024/02/08 01:19:42;;;;;;;0.30;0.20;;;;;;;6.74;100.00;98878.28;5014330;28;20452;-50
2024/02/08 01:22:08;;;;;;;0.30;0.20;;;;;;;6.70;100.00;98882.78;5014328;28;20467;-50
2024/02/08 01:24:35;;;;;;;0.30;0.20;;;;;;;6.71;100.00;98878.38;5012090;28;20966;-50
2024/02/08 01:27:01;;;;;;;0.30;0.20;;;;;;;6.56;100.00;98885.06;5014182;28;20543;-50
2024/02/08 01:29:28;;;;;;;0.30;0.20;;;;;;;6.69;100.00;98881.06;5014025;28;20511;-50
2024/02/08 01:31:54;;;;;;;0.30;0.20;;;;;;;6.76;100.00;98887.88;5019302;28;20464;-50
2024/02/08 01:34:28;;;;;;;0.30;0.20;;;;;;;6.66;100.00;98891.75;5018803;28;20498;-49
2024/02/08 01:36:59;;;;;;;0.30;0.10;;;;;;;6.71;100.00;98891.56;5015793;28;20490;-49
2024/02/08 01:39:26;;;;;;;0.30;0.20;;;;;;;6.79;100.00;98885.09;5025178;28;20946;-49
2024/02/08 01:41:52;;;;;;;0.30;0.20;;;;;;;6.78;100.00;98891.31;4998350;28;20516;-50
2024/02/08 01:44:21;;;;;;;0.30;0.10;;;;;;;6.84;100.00;98891.06;5013221;28;20969;-50
2024/02/08 01:46:48;;;;;;;0.30;0.20;;;;;;;6.86;100.00;98892.81;5014398;28;20453;-50
2024/02/08 01:49:22;;;;;;;0.30;0.10;;;;;;;6.91;100.00;98885.59;5013794;28;20448;-50
2024/02/08 01:51:59;;;;;;;0.30;0.20;;;;;;;6.97;100.00;98888.00;5013556;28;20926;-50
2024/02/08 01:54:28;;;;;;;0.30;0.20;;;;;;;7.16;100.00;98882.91;5008827;28;20508;-50
2024/02/08 01:56:58;;;;;;;0.30;0.20;;;;;;;6.95;100.00;98877.47;5008878;28;20483;-50
2024/02/08 01:59:27;;;;;;;0.30;0.20;;;;;;;6.90;100.00;98878.59;4995863;28;20537;-50
2024/02/08 02:01:57;;;;;;;0.30;0.20;;;;;;;6.97;100.00;98874.78;5006398;28;20456;-50
2024/02/08 02:04:24;;;;;;;0.30;0.20;;;;;;;7.01;100.00;98877.28;5014072;28;20900;-50
2024/02/08 02:06:50;;;;;;;0.30;0.20;;;;;;;6.96;100.00;98876.56;5013940;28;20464;-50
2024/02/08 02:09:24;;;;;;;0.30;0.20;;;;;;;6.91;100.00;98880.31;5013697;28;20452;-50
2024/02/08 02:11:55;;;;;;;0.30;0.20;;;;;;;6.91;100.00;98875.88;4987440;28;20973;-50
2024/02/08 02:14:28;;;;;;;0.30;0.20;;;;;;;6.93;100.00;98874.03;5013950;28;21005;-50
2024/02/08 02:17:12;;;;;;;0.30;0.13;;;;;;;6.90;100.00;98871.53;5013595;28;20545;-51
2024/02/08 02:19:39;;;;;;;0.30;0.20;;;;;;;6.96;100.00;98868.63;5012912;28;20480;-50
2024/02/08 02:22:08;;;;;;;0.30;0.20;;;;;;;6.98;100.00;98866.81;5013067;28;20969;-50
2024/02/08 02:24:36;;;;;;;0.30;0.20;;;;;;;6.91;100.00;98859.19;5007394;28;20465;-50
2024/02/08 02:27:05;;;;;;;0.30;0.20;;;;;;;6.98;100.00;98858.00;4993662;28;20453;-50
2024/02/08 02:29:33;;;;;;;0.30;0.20;;;;;;;6.96;100.00;98851.94;4993450;28;20484;-50
2024/02/08 02:32:01;;;;;;;0.30;0.17;;;;;;;6.88;100.00;98861.94;5003436;28;20453;-50
2024/02/08 02:34:30;;;;;;;0.30;0.20;;;;;;;6.94;100.00;98854.63;4986818;28;20488;-50
2024/02/08 02:36:58;;;;;;;0.30;0.20;;;;;;;6.98;100.00;98850.94;5013066;28;20523;-50
2024/02/08 02:39:30;;;;;;;0.30;0.20;;;;;;;6.96;100.00;98852.78;5013021;28;20456;-50
2024/02/08 02:41:58;;;;;;;0.30;0.20;;;;;;;7.11;100.00;98849.56;4994348;28;20446;-50
2024/02/08 02:44:27;;;;;;;0.30;0.20;;;;;;;7.05;100.00;98848.97;4999190;28;20561;-50
2024/02/08 02:46:56;;;;;;;0.30;0.20;;;;;;;7.07;100.00;98849.75;5012396;28;20864;-50
2024/02/08 02:49:23;;;;;;;0.30;0.20;;;;;;;7.00;100.00;98846.50;5005683;28;20477;-50
2024/02/08 02:51:52;;;;;;;0.30;0.20;;;;;;;7.16;100.00;98854.72;5006612;28;20908;-50
2024/02/08 02:54:22;;;;;;;0.30;0.20;;;;;;;7.21;100.00;98846.59;5009379;28;20543;-50
2024/02/08 02:56:50;;;;;;;0.30;0.20;;;;;;;7.32;100.00;98850.56;5007202;28;20448;-50
2024/02/08 02:59:17;;;;;;;0.30;0.20;;;;;;;7.26;100.00;98844.63;5012275;28;20479;-50
2024/02/08 03:01:49;;;;;;;0.30;0.20;;;;;;;7.31;100.00;98846.19;5012090;28;20448;-50
2024/02/08 03:04:16;;;;;;;0.30;0.20;;;;;;;7.45;100.00;98845.66;5003255;28;20468;-50
2024/02/08 03:06:45;;;;;;;0.30;0.20;;;;;;;7.19;100.00;98845.78;5008732;28;20472;-50
2024/02/08 03:09:15;;;;;;;0.30;0.20;;;;;;;7.31;100.00;98835.63;5012066;28;20953;-50
2024/02/08 03:11:43;;;;;;;0.30;0.20;;;;;;;7.54;100.00;98831.19;4998866;28;20444;-50
2024/02/08 03:14:10;;;;;;;0.30;0.20;;;;;;;7.54;100.00;98836.47;5011808;28;20539;-51
2024/02/08 03:16:37;;;;;;;0.30;0.20;;;;;;;7.38;100.00;98831.78;5012205;28;20449;-50
2024/02/08 03:19:08;;;;;;;0.30;0.20;;;;;;;7.52;100.00;98825.97;5012105;28;20448;-50
2024/02/08 03:21:40;;;;;;;0.30;0.20;;;;;;;7.51;100.00;98828.66;5010980;28;20495;-50
2024/02/08 03:24:10;;;;;;;0.30;0.20;;;;;;;7.40;100.00;98834.38;5011776;28;20551;-50
2024/02/08 03:26:40;;;;;;;0.30;0.10;;;;;;;7.31;100.00;98827.69;5011842;28;20455;-50
2024/02/08 03:29:11;;;;;;;0.30;0.20;;;;;;;7.26;100.00;98826.97;5011949;28;20805;-50
2024/02/08 03:31:45;;;;;;;0.30;0.20;;;;;;;7.25;100.00;98825.25;5011815;28;20445;-50
2024/02/08 03:34:29;;;;;;;0.30;0.20;;;;;;;7.28;100.00;98816.38;4999020;28;20492;-50
2024/02/08 03:36:57;;;;;;;0.30;0.20;;;;;;;7.15;100.00;98816.00;4989803;28;20501;-50
2024/02/08 03:39:27;;;;;;;0.30;0.20;;;;;;;7.16;100.00;98812.44;5008659;28;20479;-50
2024/02/08 03:41:56;;;;;;;0.30;0.20;;;;;;;7.19;100.00;98820.22;5004554;28;20950;-50
2024/02/08 03:44:22;;;;;;;0.30;0.20;;;;;;;7.16;100.00;98816.84;5011897;28;20555;-50
2024/02/08 03:46:52;;;;;;;0.30;0.20;;;;;;;7.16;100.00;98816.84;5011992;28;20503;-50
2024/02/08 03:49:19;;;;;;;0.30;0.20;;;;;;;7.14;100.00;98822.19;5011501;28;20452;-50
2024/02/08 03:51:48;;;;;;;0.30;0.20;;;;;;;7.09;100.00;98817.06;5011961;28;20480;-50
2024/02/08 03:54:18;;;;;;;0.30;0.10;;;;;;;7.21;100.00;98821.03;5008734;28;20595;-50
2024/02/08 03:56:49;;;;;;;0.30;0.20;;;;;;;7.06;100.00;98821.63;5005806;28;20530;-49
2024/02/08 03:59:27;;;;;;;0.30;0.20;;;;;;;7.02;100.00;98823.53;5011848;28;20457;-50
2024/02/08 04:02:01;;;;;;;0.30;0.10;;;;;;;7.19;100.00;98820.22;5011354;28;20444;-50
2024/02/08 04:04:59;;;;;;;0.30;0.20;;;;;;;7.16;100.00;98827.41;5011768;28;20973;-50
2024/02/08 04:54:20;;;;;;;0.30;0.20;;;;;;;7.19;100.00;98807.03;5014841;28;20570;-49
2024/02/08 04:56:46;;;;;;;0.30;0.20;;;;;;;7.12;100.00;98806.38;5014703;28;20527;-49
2024/02/08 04:59:13;;;;;;;0.30;0.20;;;;;;;7.06;100.00;98803.13;5014598;28;20491;-49
2024/02/08 05:01:43;;;;;;;0.30;0.20;;;;;;;7.23;100.00;98802.47;5014463;28;20550;-50
2024/02/08 05:04:09;;;;;;;0.30;0.20;;;;;;;7.21;100.00;98805.19;5014473;28;21012;-49
2024/02/08 05:06:36;;;;;;;0.30;0.20;;;;;;;7.27;100.00;98797.03;5014608;28;20463;-50
2024/02/08 05:09:03;;;;;;;0.30;0.20;;;;;;;7.18;100.00;98800.00;5014503;28;20863;-50
2024/02/08 05:11:29;;;;;;;0.30;0.20;;;;;;;7.15;100.00;98794.84;5014445;28;20539;-49
2024/02/08 05:14:02;;;;;;;0.30;0.20;;;;;;;7.17;100.00;98793.00;4998961;28;20474;-50
2024/02/08 05:16:36;;;;;;;0.30;0.20;;;;;;;7.07;100.00;98791.63;5007272;28;20457;-49
2024/02/08 05:19:09;;;;;;;0.30;0.20;;;;;;;6.98;100.00;98786.69;4995551;28;20850;-49
2024/02/08 05:21:41;;;;;;;0.30;0.20;;;;;;;6.92;100.00;98784.31;5009727;28;20483;-49
2024/02/08 05:24:08;;;;;;;0.30;0.20;;;;;;;7.02;100.00;98788.31;4993017;28;20470;-50
2024/02/08 05:26:35;;;;;;;0.30;0.20;;;;;;;6.84;100.00;98780.16;5013142;28;20502;-50
2024/02/08 05:29:02;;;;;;;0.30;0.20;;;;;;;6.53;100.00;98779.59;5014179;28;20456;-51
2024/02/08 05:31:29;;;;;;;0.30;0.20;;;;;;;6.60;100.00;98782.88;5014452;28;20449;-49
2024/02/08 05:33:56;;;;;;;0.30;0.10;;;;;;;6.74;100.00;98780.59;5014335;28;20479;-49
2024/02/08 05:36:24;;;;;;;0.30;0.20;;;;;;;6.84;100.00;98785.44;5014846;28;20452;-49
2024/02/08 05:38:56;;;;;;;0.30;0.10;;;;;;;6.91;100.00;98785.22;4998774;28;20460;-49
2024/02/08 05:41:23;;;;;;;0.30;0.20;;;;;;;6.91;100.00;98791.38;4996631;28;20445;-49
2024/02/08 05:43:51;;;;;;;0.30;0.20;;;;;;;6.70;100.00;98787.72;5008947;28;21024;-49
2024/02/08 05:46:28;;;;;;;0.30;0.10;;;;;;;6.93;100.00;98784.25;5014026;28;20543;-49
2024/02/08 05:49:04;;;;;;;0.30;0.20;;;;;;;6.84;100.00;98793.38;5014569;28;20969;-49
2024/02/08 05:51:32;;;;;;;0.30;0.20;;;;;;;6.71;100.00;98794.75;5013837;28;20459;-49
2024/02/08 05:54:02;;;;;;;0.30;0.20;;;;;;;6.73;100.00;98789.44;5012871;28;20901;-49
2024/02/08 05:56:30;;;;;;;0.30;0.20;;;;;;;6.88;100.00;98782.72;5006234;28;20861;-49
2024/02/08 05:59:01;;;;;;;0.30;0.20;;;;;;;6.96;100.00;98783.25;5014021;28;20448;-49
2024/02/08 06:01:31;;;;;;;0.30;0.20;;;;;;;6.99;100.00;98777.84;5013547;28;20815;-49
2024/02/08 06:04:02;;;;;;;0.30;0.20;;;;;;;6.98;100.00;98784.06;5013402;28;20925;-49
2024/02/08 06:06:38;;;;;;;0.30;0.20;;;;;;;7.10;100.00;98776.53;5013560;28;20452;-49
2024/02/08 06:09:09;;;;;;;0.30;0.20;;;;;;;7.29;100.00;98789.03;5013417;28;20455;-50
2024/02/08 06:11:39;;;;;;;0.30;0.20;;;;;;;7.36;100.00;98791.34;5012844;28;20489;-50
2024/02/08 06:14:12;;;;;;;0.30;0.20;;;;;;;7.29;100.00;98791.66;5013245;28;20527;-51
2024/02/08 06:16:48;;;;;;;0.30;0.20;;;;;;;7.45;100.00;98797.22;5012938;28;20444;-50
2024/02/08 06:19:15;;;;;;;0.30;0.20;;;;;;;7.53;100.00;98789.81;5012946;28;20502;-51
2024/02/08 06:21:43;;;;;;;0.30;0.20;;;;;;;7.58;100.00;98790.50;5012991;28;20454;-51
2024/02/08 06:26:55;;;;;;;0.30;0.20;;;;;;;7.60;100.00;98797.44;5001010;28;20528;-51
2024/02/08 06:29:26;;;;;;;0.43;0.43;;;;;;;7.70;100.00;98795.28;5012762;28;20522;-51
2024/02/08 06:32:02;;;;;;;0.30;0.20;;;;;;;7.69;100.00;98790.94;5012871;28;20457;-49
2024/02/08 06:34:55;;;;;;;0.30;0.20;;;;;;;7.61;100.00;98793.03;5012723;28;20532;-50
2024/02/08 06:37:29;;;;;;;0.30;0.20;;;;;;;7.86;100.00;98793.72;5002919;28;20456;-49
2024/02/08 06:39:56;;;;;;;0.30;0.20;;;;;;;7.60;100.00;98786.88;5006470;28;20452;-50
2024/02/08 06:42:40;;;;;;;0.30;0.20;;;;;;;7.37;100.00;98785.13;4995931;28;20464;-50
2024/02/08 06:45:24;;;;;;;0.30;0.20;;;;;;;7.35;100.00;98781.69;5012662;28;20460;-49
2024/02/08 06:47:56;;;;;;;0.30;0.20;;;;;;;7.38;100.00;98786.00;5012364;28;20946;-50
2024/02/08 07:37:18;;;;;;;0.30;0.20;;;;;;;7.46;100.00;98788.34;5008817;28;20966;-49
2024/02/08 07:40:00;;;;;;;0.30;0.20;;;;;;;7.42;100.00;98785.84;5007189;28;20451;-50
2024/02/08 07:42:41;;;;;;;0.30;0.20;;;;;;;7.61;100.00;98767.44;4995568;28;20539;-51
2024/02/08 07:45:12;;;;;;;0.30;0.20;;;;;;;7.50;100.00;98774.94;5011966;28;20532;-51
2024/02/08 07:47:40;;;;;;;0.30;0.20;;;;;;;7.43;100.00;98776.97;5011863;28;20934;-49
2024/02/08 07:50:08;;;;;;;0.30;0.20;;;;;;;7.43;100.00;98776.97;5011831;28;20448;-49
2024/02/08 07:52:55;;;;;;;0.30;0.20;;;;;;;7.44;100.00;98775.19;4985816;28;20461;-50
2024/02/08 07:55:46;;;;;;;0.30;0.20;;;;;;;7.69;100.00;98778.56;5002241;28;20559;-50
2024/02/08 07:58:08;;;;;;;0.30;0.20;;;;;;;7.57;100.00;98780.84;5011531;28;20452;-51
2024/02/08 08:03:09;;;;;;;0.30;0.20;;;;;;;7.49;100.00;98780.28;5011369;28;20507;-50
2024/02/08 08:05:41;;;;;;;0.30;0.20;;;;;;;7.55;100.00;98780.06;5011450;28;20503;-49
2024/02/08 08:08:24;;;;;;;0.30;0.20;;;;;;;7.46;100.00;98778.63;5012599;28;20448;-50
2024/02/08 08:11:05;;;;;;;0.30;0.20;;;;;;;7.45;100.00;98778.69;5015502;28;20448;-50
2024/02/08 08:19:19;;;;;;;0.30;0.20;;;;;;;7.47;100.00;98787.44;4992308;28;20452;-49
2024/02/08 08:22:03;;;;;;;0.30;0.20;;;;;;;7.47;100.00;98780.34;4991260;28;20449;-50
2024/02/08 08:24:42;;;;;;;0.30;0.20;;;;;;;7.45;100.00;98768.13;5008913;28;20477;-50
2024/02/08 08:27:27;;;;;;;0.30;0.20;;;;;;;7.49;100.00;98770.56;5015215;28;20448;-50
2024/02/08 08:29:58;;;;;;;0.30;0.20;;;;;;;7.39;100.00;98778.00;5015143;28;20452;-49
2024/02/08 08:37:59;;;;;;;0.30;0.20;;;;;;;7.47;100.00;98767.13;5012442;28;20898;-49
2024/02/08 08:40:38;;;;;;;0.30;0.20;;;;;;;7.48;100.00;98770.63;5004703;28;20489;-50
2024/02/08 08:43:19;;;;;;;0.30;0.20;;;;;;;7.44;100.00;98759.34;5004946;28;20526;-50
2024/02/08 08:45:50;;;;;;;0.30;0.17;;;;;;;7.60;100.00;98764.84;5014678;28;20998;-50
2024/02/08 08:48:21;;;;;;;0.30;0.20;;;;;;;7.40;100.00;98760.38;5014696;28;20782;-49
2024/02/08 08:50:57;;;;;;;0.30;0.20;;;;;;;7.51;100.00;98763.44;5014521;28;20448;-50
2024/02/08 08:53:28;;;;;;;0.30;0.20;;;;;;;7.70;100.00;98764.41;5014799;28;20480;-51
2024/02/08 08:55:55;;;;;;;0.30;0.20;;;;;;;7.66;100.00;98754.88;4998526;28;20496;-51
2024/02/08 08:58:27;;;;;;;0.30;0.20;;;;;;;7.56;100.00;98750.91;4996079;28;20449;-50
2024/02/08 09:03:40;;;;;;;0.30;0.20;;;;;;;7.61;100.00;98750.72;5014133;28;20834;-51
2024/02/08 09:06:12;;;;;;;0.30;0.20;;;;;;;7.50;100.00;98752.94;5014494;28;20444;-50
2024/02/08 09:08:54;;;;;;;0.30;0.20;;;;;;;7.47;100.00;98742.50;5014310;28;20967;-50
2024/02/08 09:11:24;;;;;;;0.30;0.20;;;;;;;7.31;100.00;98753.69;5015537;28;20944;-50
2024/02/08 09:13:53;;;;;;;0.30;0.20;;;;;;;7.40;100.00;98750.69;5014823;28;20511;-50
2024/02/08 09:21:33;;;;;;;0.30;0.20;;;;;;;7.45;100.00;98734.63;5014384;28;20454;-50
2024/02/08 09:24:04;;;;;;;0.30;0.20;;;;;;;7.49;100.00;98738.00;5013475;28;20469;-50
2024/02/08 09:26:48;;;;;;;0.30;0.20;;;;;;;7.51;100.00;98739.66;5013641;28;20445;-50
2024/02/08 09:29:23;;;;;;;0.30;0.20;;;;;;;7.58;100.00;98738.47;5014406;28;20848;-50
2024/02/08 09:31:58;;;;;;;0.30;0.20;;;;;;;7.56;100.00;98731.53;5014074;28;20479;-49
2024/02/08 09:34:40;;;;;;;0.30;0.20;;;;;;;7.69;100.00;98736.25;5014038;28;20478;-50
2024/02/08 09:37:08;;;;;;;0.30;0.20;;;;;;;7.65;100.00;98736.44;5011769;28;20985;-50
2024/02/08 09:39:53;;;;;;;0.30;0.20;;;;;;;7.82;100.00;98735.75;4978472;28;20440;-50
2024/02/08 09:42:30;;;;;;;0.30;0.20;;;;;;;7.68;100.00;98733.69;4997069;28;20453;-50
2024/02/08 09:47:52;;;;;;;0.30;0.20;;;;;;;7.70;100.00;98727.41;4974766;28;20792;-50
2024/02/08 09:50:35;;;;;;;0.30;0.20;;;;;;;7.79;100.00;98718.19;5004453;28;20868;-50
2024/02/08 09:53:19;;;;;;;0.30;0.20;;;;;;;7.75;100.00;98715.75;5013632;28;20444;-50
2024/02/08 09:55:55;;;;;;;0.30;0.20;;;;;;;7.87;100.00;98721.38;5004839;28;20496;-50
2024/02/08 09:58:37;;;;;;;0.30;0.20;;;;;;;7.92;100.00;98711.44;5013455;28;20475;-51
2024/02/08 10:01:22;;;;;;;0.30;0.20;;;;;;;7.89;100.00;98721.31;5013698;28;20466;-50
2024/02/08 10:04:04;;;;;;;0.30;0.20;;;;;;;8.08;100.00;98708.13;5000452;28;20572;-50
2024/02/08 10:06:45;;;;;;;0.30;0.20;;;;;;;7.87;100.00;98710.81;5013558;28;20437;-50
2024/02/08 10:12:06;;;;;;;0.30;0.13;;;;;;;7.82;100.00;98702.22;5013381;28;21029;-50
2024/02/08 10:14:33;;;;;;;0.30;0.20;;;;;;;8.02;100.00;98690.75;5012970;28;20487;-50
2024/02/08 10:17:24;;;;;;;0.30;0.20;;;;;;;8.02;100.00;98698.69;5013070;28;20492;-50
2024/02/08 10:21:03;;;;;;;0.30;0.20;;;;;;;8.01;100.00;98683.75;5004038;28;21035;-50
2024/02/08 10:23:09;;;;;;;0.30;0.20;;;;;;;8.00;100.00;98685.53;4980828;28;20493;-50
2024/02/08 10:28:22;;;;;;;0.30;0.20;;;;;;;8.05;100.00;98681.81;5013134;28;20544;-50
2024/02/08 10:30:57;;;;;;;0.30;0.20;;;;;;;8.02;100.00;98675.72;5012250;28;20452;-50
2024/02/08 10:33:24;;;;;;;0.30;0.20;;;;;;;7.93;100.00;98673.50;5012408;28;20478;-50
2024/02/08 10:35:58;;;;;;;0.30;0.20;;;;;;;7.96;100.00;98667.22;5012916;28;20864;-50
2024/02/08 10:38:29;;;;;;;0.30;0.20;;;;;;;8.01;100.00;98668.72;5002814;28;20943;-50
2024/02/08 10:40:57;;;;;;;0.30;0.20;;;;;;;8.18;100.00;98659.16;4995939;28;20449;-50
2024/02/08 10:43:25;;;;;;;0.30;0.20;;;;;;;8.18;100.00;98652.09;5003777;28;20906;-51
2024/02/08 10:45:53;;;;;;;0.30;0.20;;;;;;;8.32;100.00;98646.16;5012266;28;21001;-50
2024/02/08 10:48:23;;;;;;;0.30;0.20;;;;;;;8.25;100.00;98648.25;4995274;28;20492;-50
2024/02/08 10:50:50;;;;;;;0.30;0.20;;;;;;;8.18;100.00;98636.22;4976243;28;20458;-50
2024/02/08 10:53:39;;;;;;;0.30;0.20;;;;;;;8.34;100.00;98628.44;4997428;28;20476;-51
2024/02/08 10:56:14;;;;;;;0.30;0.20;;;;;;;8.36;100.00;98628.38;5002962;28;20586;-51
2024/02/08 10:59:00;;;;;;;0.30;0.20;;;;;;;8.32;100.00;98625.00;5012216;28;20452;-50
2024/02/08 11:01:37;;;;;;;0.30;0.20;;;;;;;8.50;100.00;98620.69;5012489;28;20914;-50
2024/02/08 11:04:17;;;;;;;0.30;0.20;;;;;;;8.57;100.00;98609.72;5012250;28;20464;-50
2024/02/08 11:07:08;;;;;;;0.30;0.20;;;;;;;8.76;100.00;98603.53;5011919;28;20448;-49
2024/02/08 11:09:35;;;;;;;0.30;0.20;;;;;;;8.76;100.00;98599.06;5012178;28;20455;-50
2024/02/08 11:12:10;;;;;;;0.30;0.20;;;;;;;8.91;100.00;98597.50;4999669;28;20454;-50
2024/02/08 11:14:43;;;;;;;0.30;0.20;;;;;;;8.93;100.00;98592.97;5000543;28;20557;-50
2024/02/08 11:17:20;;;;;;;0.30;0.20;;;;;;;8.84;100.00;98588.13;5011688;28;20488;-50
2024/02/08 11:19:49;;;;;;;0.30;0.20;;;;;;;8.89;100.00;98575.50;5012020;28;20455;-50
2024/02/08 11:22:34;;;;;;;0.30;0.20;;;;;;;9.00;100.00;98564.38;5011926;28;20946;-50
2024/02/08 11:25:18;;;;;;;0.30;0.20;;;;;;;8.94;100.00;98562.91;5008700;28;20480;-50
2024/02/08 11:27:49;;;;;;;0.30;0.20;;;;;;;9.24;100.00;98559.63;5011691;28;20457;-50
2024/02/08 11:30:20;;;;;;;0.30;0.20;;;;;;;9.18;100.00;98559.03;5011783;28;20463;-50
2024/02/08 11:33:01;;;;;;;0.30;0.20;;;;;;;9.14;100.00;98546.84;4985494;28;20876;-50
2024/02/08 11:35:35;;;;;;;0.30;0.20;;;;;;;9.24;100.00;98544.59;5011685;28;20543;-51
2024/02/08 11:38:10;;;;;;;0.30;0.20;;;;;;;9.35;100.00;98542.25;5008539;28;20440;-50
2024/02/08 11:40:37;;;;;;;0.30;0.20;;;;;;;9.28;100.00;98542.63;5005952;28;20503;-50
2024/02/08 11:43:06;;;;;;;0.40;0.30;;;;;;;9.44;100.00;98547.03;4999501;28;20973;-50
2024/02/08 11:45:35;;;;;;;0.30;0.20;;;;;;;9.28;100.00;98537.31;5011753;28;20508;-50
2024/02/08 11:48:04;;;;;;;0.30;0.20;;;;;;;9.32;100.00;98536.22;4993940;28;20457;-50
2024/02/08 11:50:36;;;;;;;0.30;0.20;;;;;;;9.36;100.00;98536.00;5004311;28;20478;-50
2024/02/08 11:53:06;;;;;;;0.30;0.20;;;;;;;9.19;100.00;98531.56;5011678;28;20934;-50
2024/02/08 11:55:35;;;;;;;0.30;0.20;;;;;;;9.10;100.00;98523.22;5002505;28;20901;-49
2024/02/08 11:58:10;;;;;;;0.30;0.20;;;;;;;9.24;100.00;98536.63;5011943;28;20917;-50
2024/02/08 12:00:45;;;;;;;0.30;0.20;;;;;;;9.28;100.00;98532.88;5011534;28;20448;-50
2024/02/08 12:03:16;;;;;;;0.30;0.20;;;;;;;9.33;100.00;98517.59;5011621;28;20467;-50
2024/02/08 12:05:51;;;;;;;0.30;0.20;;;;;;;9.44;100.00;98514.38;5011804;28;20869;-50
2024/02/08 12:08:18;;;;;;;0.30;0.20;;;;;;;9.47;100.00;98516.88;5011475;28;20977;-50
2024/02/08 12:10:51;;;;;;;0.30;0.20;;;;;;;9.12;100.00;98508.94;5011602;28;20828;-50
2024/02/08 12:13:25;;;;;;;0.30;0.20;;;;;;;9.18;100.00;98510.41;5011324;28;20472;-50
2024/02/08 12:15:55;;;;;;;0.30;0.20;;;;;;;9.39;100.00;98511.09;5011665;28;20831;-50
2024/02/08 12:18:27;;;;;;;0.30;0.20;;;;;;;9.26;100.00;98499.44;5010977;28;20455;-50
2024/02/08 12:20:58;;;;;;;0.30;0.20;;;;;;;9.29;100.00;98486.88;4994237;28;20449;-50
2024/02/08 12:23:30;;;;;;;0.30;0.20;;;;;;;9.43;100.00;98491.44;5011467;28;20495;-50
2024/02/08 12:26:01;;;;;;;0.30;0.20;;;;;;;9.16;100.00;98468.09;5009095;28;20451;-50
2024/02/08 12:28:32;;;;;;;0.30;0.20;;;;;;;9.29;100.00;98473.59;5011502;28;20430;-50
2024/02/08 12:30:59;;;;;;;0.30;0.20;;;;;;;9.22;100.00;98466.06;5011346;28;20958;-50
2024/02/08 12:33:30;;;;;;;0.30;0.20;;;;;;;9.53;100.00;98467.94;5011244;28;20503;-50
2024/02/08 12:36:00;;;;;;;0.30;0.20;;;;;;;9.42;100.00;98466.72;4993763;28;20828;-50
2024/02/08 12:38:27;;;;;;;0.30;0.20;;;;;;;9.37;100.00;98473.22;5008710;28;20514;-50
2024/02/08 12:41:01;;;;;;;0.30;0.20;;;;;;;9.29;100.00;98473.59;5003437;28;20528;-50
2024/02/08 12:43:27;;;;;;;0.30;0.20;;;;;;;9.33;100.00;98471.69;5003213;28;20443;-50
2024/02/08 12:45:54;;;;;;;0.30;0.20;;;;;;;9.44;100.00;98470.13;5011337;28;20492;-50
2024/02/08 12:48:21;;;;;;;0.30;0.20;;;;;;;9.45;100.00;98463.03;5011206;28;20514;-50
2024/02/08 12:50:52;;;;;;;0.30;0.20;;;;;;;9.38;100.00;98464.31;5010913;28;20544;-50
2024/02/08 12:53:21;;;;;;;0.30;0.20;;;;;;;9.60;100.00;98459.59;5011299;28;20475;-50
2024/02/08 12:55:47;;;;;;;0.30;0.20;;;;;;;9.67;100.00;98458.31;5014027;28;20494;-50
2024/02/08 12:58:18;;;;;;;0.30;0.20;;;;;;;9.49;100.00;98460.16;5014820;28;20457;-50
2024/02/08 13:01:04;;;;;;;0.30;0.20;;;;;;;9.22;100.00;98460.78;5015049;28;20530;-50
2024/02/08 13:03:34;;;;;;;0.30;0.20;;;;;;;9.26;100.00;98457.88;5014393;28;20527;-50
2024/02/08 13:06:04;;;;;;;0.30;0.20;;;;;;;9.34;100.00;98460.13;4997534;28;20880;-50
2024/02/08 13:08:33;;;;;;;0.30;0.20;;;;;;;9.49;100.00;98461.97;5014483;28;20949;-50
2024/02/08 13:11:01;;;;;;;0.30;0.20;;;;;;;9.62;100.00;98444.44;5015134;28;20448;-50
2024/02/08 13:13:28;;;;;;;0.30;0.20;;;;;;;9.54;100.00;98428.06;5014464;28;20976;-50
2024/02/08 13:16:05;;;;;;;0.30;0.20;;;;;;;9.37;100.00;98426.34;5014192;28;20448;-50
2024/02/08 13:18:32;;;;;;;0.30;0.20;;;;;;;9.35;100.00;98408.81;5014192;28;20452;-50
2024/02/08 13:21:00;;;;;;;0.30;0.20;;;;;;;9.60;100.00;98411.84;5014491;28;20455;-51
2024/02/08 13:23:30;;;;;;;0.30;0.20;;;;;;;9.58;100.00;98404.88;5013884;28;20468;-50
2024/02/08 13:25:57;;;;;;;0.30;0.20;;;;;;;9.85;100.00;98407.81;5010764;28;20481;-51
2024/02/08 13:28:25;;;;;;;0.30;0.20;;;;;;;9.81;100.00;98404.47;5014540;28;20448;-50
2024/02/08 13:30:53;;;;;;;0.33;0.20;;;;;;;9.83;100.00;98410.56;5013930;28;20805;-50
2024/02/08 13:33:20;;;;;;;0.30;0.20;;;;;;;9.94;100.00;98409.97;5013903;28;20557;-50
2024/02/08 13:35:55;;;;;;;0.30;0.20;;;;;;;9.94;100.00;98402.00;5013900;28;20433;-50
2024/02/08 13:38:30;;;;;;;0.30;0.20;;;;;;;9.79;100.00;98401.91;5010708;28;20495;-50
2024/02/08 13:41:27;;;;;;;0.30;0.20;;;;;;;9.82;100.00;98400.88;5004554;28;20499;-50
2024/02/08 13:43:59;;;;;;;0.30;0.20;;;;;;;10.02;100.00;98397.97;5005112;28;20889;-50
2024/02/08 13:46:39;;;;;;;0.30;0.20;;;;;;;9.76;100.00;98395.94;5011435;28;20449;-51
2024/02/08 13:49:11;;;;;;;0.30;0.20;;;;;;;9.76;100.00;98401.25;5013334;28;20487;-50
2024/02/08 13:51:44;;;;;;;0.30;0.20;;;;;;;10.01;100.00;98398.94;5013638;28;20445;-50
2024/02/08 13:54:25;;;;;;;0.30;0.20;;;;;;;9.85;100.00;98394.53;5010655;28;20568;-50
2024/02/08 13:56:55;;;;;;;0.30;0.20;;;;;;;10.09;100.00;98387.84;5008195;28;20496;-50
2024/02/08 13:59:35;;;;;;;0.30;0.20;;;;;;;10.16;100.00;98386.56;5013399;28;20499;-50
2024/02/08 14:02:12;;;;;;;0.30;0.20;;;;;;;10.15;100.00;98379.56;5005657;28;20450;-51
2024/02/08 14:04:58;;;;;;;0.30;0.20;;;;;;;10.06;100.00;98380.94;4997031;28;20476;-50
2024/02/08 14:07:28;;;;;;;0.30;0.20;;;;;;;10.22;100.00;98380.06;5012779;28;20532;-50